createdAt,value
2023-05-21T00:02:22.244Z,19.20
2023-05-21T00:04:48.837Z,20.07
2023-05-21T00:07:15.517Z,19.40
2023-05-21T00:09:42.048Z,21.53
2023-05-21T00:12:09.638Z,19.43
2023-05-21T00:14:36.479Z,22.13
2023-05-21T00:17:03.071Z,21.80
2023-05-21T00:19:29.861Z,20.20
2023-05-21T00:21:57.637Z,21.10
2023-05-21T00:24:24.186Z,19.63
2023-05-21T00:26:50.933Z,23.30
2023-05-21T00:29:17.441Z,22.77
2023-05-21T00:31:44.180Z,22.37
2023-05-21T00:34:10.907Z,22.40
2023-05-21T00:36:38.024Z,21.83
2023-05-21T00:39:04.679Z,22.40
2023-05-21T00:41:31.317Z,19.77
2023-05-21T00:44:00.278Z,22.40
2023-05-21T00:46:28.532Z,21.07
2023-05-21T00:48:57.987Z,21.27
2023-05-21T00:51:25.815Z,20.97
2023-05-21T00:53:52.933Z,21.03
2023-05-21T00:56:22.680Z,21.17
2023-05-21T00:58:51.858Z,21.53
2023-05-21T01:01:19.386Z,19.53
2023-05-21T01:03:48.651Z,23.10
2023-05-21T01:06:15.980Z,23.60
2023-05-21T01:08:42.522Z,23.10
2023-05-21T01:11:09.949Z,21.33
2023-05-21T01:13:40.138Z,24.27
2023-05-21T01:16:08.829Z,23.73
2023-05-21T01:18:37.511Z,22.13
2023-05-21T01:21:05.041Z,21.93
2023-05-21T01:23:31.933Z,22.30
2023-05-21T01:25:58.462Z,20.80
2023-05-21T01:28:25.008Z,20.07
2023-05-21T01:30:51.877Z,21.77
2023-05-21T01:33:26.014Z,22.70
2023-05-21T01:36:09.381Z,19.90
2023-05-21T01:38:43.644Z,23.50
2023-05-21T01:41:16.598Z,24.00
2023-05-21T01:43:46.251Z,22.33
2023-05-21T01:46:17.074Z,21.00
2023-05-21T01:48:44.922Z,24.37
2023-05-21T01:51:13.272Z,23.40
2023-05-21T01:53:41.633Z,22.10
2023-05-21T01:56:08.656Z,20.77
2023-05-21T01:58:36.196Z,22.17
2023-05-21T02:01:03.898Z,21.87
2023-05-21T02:03:31.656Z,23.40
2023-05-21T02:05:58.757Z,24.67
2023-05-21T02:08:25.700Z,25.33
2023-05-21T02:10:53.155Z,22.77
2023-05-21T02:13:21.959Z,26.70
2023-05-21T02:15:51.877Z,27.33
2023-05-21T02:18:18.705Z,27.20
2023-05-21T02:20:45.665Z,23.33
2023-05-21T02:23:12.664Z,23.00
2023-05-21T02:25:39.899Z,23.97
2023-05-21T02:28:07.839Z,28.63
2023-05-21T02:30:34.942Z,29.07
2023-05-21T02:33:03.209Z,29.77
2023-05-21T02:35:30.010Z,34.63
2023-05-21T02:37:59.421Z,34.20
2023-05-21T02:40:26.431Z,38.77
2023-05-21T02:42:53.572Z,38.80
2023-05-21T02:45:21.963Z,46.73
2023-05-21T02:47:49.210Z,40.73
2023-05-21T02:50:18.857Z,41.17
2023-05-21T02:52:52.525Z,55.63
2023-05-21T02:55:20.059Z,52.50
2023-05-21T02:57:47.586Z,48.90
2023-05-21T03:00:14.793Z,51.40
2023-05-21T03:02:43.497Z,43.03
2023-05-21T03:05:11.110Z,43.87
2023-05-21T03:07:38.473Z,38.43
2023-05-21T03:10:05.929Z,43.23
2023-05-21T03:12:33.304Z,39.57
2023-05-21T03:15:00.924Z,39.33
2023-05-21T03:17:28.259Z,34.73
2023-05-21T03:19:55.122Z,35.80
2023-05-21T03:22:22.662Z,35.57
2023-05-21T03:24:49.843Z,33.33
2023-05-21T03:27:18.170Z,32.77
2023-05-21T03:29:46.611Z,30.13
2023-05-21T03:32:14.425Z,29.37
2023-05-21T03:34:42.716Z,28.73
2023-05-21T03:37:09.742Z,29.63
2023-05-21T03:39:36.994Z,26.90
2023-05-21T03:42:04.283Z,28.17
2023-05-21T03:44:48.780Z,27.43
2023-05-21T03:47:30.799Z,27.33
2023-05-21T03:49:58.822Z,31.23
2023-05-21T03:52:25.744Z,27.77
2023-05-21T03:54:52.942Z,28.80
2023-05-21T03:57:19.808Z,27.70
2023-05-21T03:59:48.022Z,26.77
2023-05-21T04:02:15.544Z,25.57
2023-05-21T04:04:43.996Z,30.63
2023-05-21T04:07:14.814Z,27.67
2023-05-21T04:09:42.175Z,27.10
2023-05-21T04:12:09.080Z,29.73
2023-05-21T04:14:37.639Z,28.33
2023-05-21T04:17:05.485Z,27.53
2023-05-21T04:19:33.448Z,28.00
2023-05-21T04:22:01.221Z,26.97
2023-05-21T04:24:28.210Z,25.57
2023-05-21T04:27:17.989Z,22.77
2023-05-21T04:29:45.108Z,28.03
2023-05-21T04:32:11.678Z,24.97
2023-05-21T04:34:39.615Z,24.33
2023-05-21T04:37:06.878Z,24.83
2023-05-21T04:39:34.732Z,25.37
2023-05-21T04:42:02.088Z,24.23
2023-05-21T04:44:29.554Z,26.50
2023-05-21T04:46:58.732Z,26.23
2023-05-21T04:49:25.607Z,24.93
2023-05-21T04:51:52.143Z,21.57
2023-05-21T04:54:18.716Z,22.33
2023-05-21T04:56:45.253Z,22.03
2023-05-21T04:59:11.787Z,23.80
2023-05-21T05:01:38.598Z,23.77
2023-05-21T05:04:05.911Z,21.73
2023-05-21T05:06:32.685Z,22.63
2023-05-21T05:08:59.335Z,20.30
2023-05-21T05:11:26.584Z,21.57
2023-05-21T05:13:53.217Z,19.73
2023-05-21T05:16:25.041Z,19.10
2023-05-21T05:18:52.729Z,21.87
2023-05-21T05:21:21.193Z,23.13
2023-05-21T05:23:47.795Z,20.40
2023-05-21T05:26:14.391Z,19.77
2023-05-21T05:28:40.936Z,20.80
2023-05-21T05:31:07.516Z,23.67
2023-05-21T05:33:34.308Z,20.83
2023-05-21T05:36:00.915Z,18.33
2023-05-21T05:38:27.985Z,17.77
2023-05-21T05:40:54.542Z,18.60
2023-05-21T05:43:21.473Z,12.23
2023-05-21T05:45:48.787Z,13.33
2023-05-21T05:48:16.751Z,14.70
2023-05-21T05:50:44.951Z,14.50
2023-05-21T05:53:13.303Z,15.07
2023-05-21T05:55:40.588Z,13.67
2023-05-21T05:58:07.398Z,14.13
2023-05-21T06:00:46.077Z,14.83
2023-05-21T06:03:13.265Z,12.67
2023-05-21T06:05:41.637Z,16.83
2023-05-21T06:08:08.188Z,15.03
2023-05-21T06:10:34.761Z,15.37
2023-05-21T06:13:01.268Z,14.83
2023-05-21T06:15:27.784Z,14.90
2023-05-21T06:17:54.361Z,13.50
2023-05-21T06:20:20.938Z,13.63
2023-05-21T06:22:47.570Z,13.40
2023-05-21T06:25:14.584Z,15.00
2023-05-21T06:27:41.237Z,13.00
2023-05-21T06:30:15.660Z,13.50
2023-05-21T06:32:43.491Z,13.77
2023-05-21T06:35:10.165Z,17.67
2023-05-21T06:37:36.745Z,15.63
2023-05-21T06:40:03.839Z,13.60
2023-05-21T06:42:31.319Z,13.63
2023-05-21T06:45:23.907Z,12.90
2023-05-21T06:47:53.536Z,14.37
2023-05-21T06:50:20.493Z,13.00
2023-05-21T06:52:47.052Z,13.97
2023-05-21T06:55:14.047Z,13.50
2023-05-21T06:57:59.036Z,13.17
2023-05-21T07:00:25.891Z,14.13
2023-05-21T07:02:53.368Z,15.23
2023-05-21T07:05:20.243Z,16.37
2023-05-21T07:07:46.737Z,14.50
2023-05-21T07:10:13.229Z,14.23
2023-05-21T07:12:41.249Z,16.07
2023-05-21T07:15:09.145Z,15.20
2023-05-21T07:17:35.804Z,13.07
2023-05-21T07:20:02.700Z,14.00
2023-05-21T07:22:30.139Z,12.83
2023-05-21T07:24:56.647Z,14.27
2023-05-21T07:27:25.752Z,17.00
2023-05-21T07:29:53.732Z,13.07
2023-05-21T07:32:21.398Z,13.50
2023-05-21T07:34:48.410Z,14.60
2023-05-21T07:37:14.960Z,14.37
2023-05-21T07:39:41.473Z,13.77
2023-05-21T07:42:08.953Z,15.37
2023-05-21T07:44:35.489Z,14.47
2023-05-21T07:47:02.378Z,13.03
2023-05-21T07:49:28.888Z,14.57
2023-05-21T07:51:55.656Z,14.60
2023-05-21T07:54:22.360Z,13.53
2023-05-21T07:56:49.482Z,13.83
2023-05-21T07:59:31.766Z,14.97
2023-05-21T08:01:58.353Z,16.93
2023-05-21T08:04:25.071Z,14.47
2023-05-21T08:06:51.973Z,15.63
2023-05-21T08:09:19.338Z,17.60
2023-05-21T08:11:46.587Z,14.23
2023-05-21T08:14:13.174Z,15.50
2023-05-21T08:16:39.873Z,15.87
2023-05-21T08:19:06.572Z,18.30
2023-05-21T08:21:34.028Z,15.30
2023-05-21T08:24:01.268Z,15.27
2023-05-21T08:26:27.911Z,14.90
2023-05-21T08:28:54.489Z,14.90
2023-05-21T08:31:21.439Z,15.10
2023-05-21T08:33:52.610Z,14.73
2023-05-21T08:36:24.831Z,16.00
2023-05-21T08:38:56.307Z,13.87
2023-05-21T08:41:35.831Z,14.20
2023-05-21T08:44:02.766Z,14.27
2023-05-21T08:46:34.657Z,13.50
2023-05-21T08:49:02.799Z,14.93
2023-05-21T08:51:31.078Z,12.87
2023-05-21T08:53:59.599Z,13.40
2023-05-21T08:56:27.214Z,14.27
2023-05-21T08:58:57.271Z,14.40
2023-05-21T09:01:27.910Z,14.33
2023-05-21T09:04:19.643Z,14.90
2023-05-21T09:06:49.296Z,13.53
2023-05-21T09:09:31.811Z,12.93
2023-05-21T09:11:58.401Z,13.87
2023-05-21T09:14:26.391Z,14.87
2023-05-21T09:17:01.328Z,14.13
2023-05-21T09:19:30.179Z,13.17
2023-05-21T09:22:04.808Z,13.57
2023-05-21T09:24:35.812Z,13.50
2023-05-21T09:27:06.363Z,15.37
2023-05-21T09:29:34.393Z,13.53
2023-05-21T09:32:06.913Z,13.00
2023-05-21T09:34:37.032Z,14.13
2023-05-21T09:37:06.469Z,13.47
2023-05-21T09:39:35.755Z,14.30
2023-05-21T09:42:04.178Z,13.43
2023-05-21T09:44:32.399Z,18.67
2023-05-21T09:46:59.583Z,14.57
2023-05-21T09:49:26.747Z,13.40
2023-05-21T09:51:58.080Z,15.73
2023-05-21T09:54:26.038Z,14.97
2023-05-21T09:56:53.515Z,14.47
2023-05-21T09:59:20.907Z,15.87
2023-05-21T10:01:51.505Z,13.43
2023-05-21T10:04:18.797Z,17.30
2023-05-21T10:06:47.802Z,13.47
2023-05-21T10:09:15.687Z,13.77
2023-05-21T10:11:44.689Z,14.43
2023-05-21T10:14:22.378Z,13.60
2023-05-21T10:16:50.063Z,13.43
2023-05-21T10:19:17.079Z,13.10
2023-05-21T10:21:44.876Z,14.03
2023-05-21T10:24:11.877Z,14.53
2023-05-21T10:26:39.536Z,13.60
2023-05-21T10:29:07.852Z,14.17
2023-05-21T10:31:35.971Z,13.17
2023-05-21T10:34:06.017Z,13.20
2023-05-21T10:36:34.091Z,15.07
2023-05-21T10:39:01.885Z,13.43
2023-05-21T10:41:36.059Z,13.80
2023-05-21T10:45:04.223Z,14.03
2023-05-21T10:47:45.936Z,13.13
2023-05-21T10:50:40.806Z,13.33
2023-05-21T10:53:34.075Z,13.50
2023-05-21T10:56:28.657Z,12.97
2023-05-21T10:59:07.892Z,13.13
2023-05-21T11:01:37.587Z,14.60
2023-05-21T11:04:06.032Z,13.87
2023-05-21T11:06:32.820Z,14.70
2023-05-21T11:09:11.840Z,13.70
2023-05-21T11:11:48.409Z,13.53
2023-05-21T11:14:40.598Z,13.10
2023-05-21T11:17:16.426Z,12.13
2023-05-21T11:19:47.066Z,12.83
2023-05-21T11:22:26.370Z,13.40
2023-05-21T11:24:54.870Z,12.80
2023-05-21T11:27:32.374Z,12.33
2023-05-21T11:29:59.519Z,12.97
2023-05-21T11:32:26.145Z,13.33
2023-05-21T11:34:52.724Z,12.40
2023-05-21T11:37:20.779Z,12.20
2023-05-21T11:39:48.415Z,12.30
2023-05-21T11:42:38.739Z,11.50
2023-05-21T11:45:05.950Z,11.87
2023-05-21T11:47:32.933Z,11.80
2023-05-21T11:50:01.860Z,12.70
2023-05-21T11:52:30.294Z,12.43
2023-05-21T11:54:58.158Z,12.90
2023-05-21T11:57:30.532Z,12.00
2023-05-21T11:59:58.570Z,13.17
2023-05-21T12:02:29.297Z,12.13
2023-05-21T12:05:00.213Z,11.50
2023-05-21T12:07:31.471Z,12.23
2023-05-21T12:09:58.469Z,12.60
2023-05-21T12:12:27.232Z,12.47
2023-05-21T12:14:58.653Z,11.90
2023-05-21T12:17:31.221Z,12.07
2023-05-21T12:19:57.915Z,13.33
2023-05-21T12:22:25.324Z,11.97
2023-05-21T12:24:53.771Z,12.20
2023-05-21T12:27:22.153Z,13.27
2023-05-21T12:29:52.990Z,11.97
2023-05-21T12:32:21.172Z,13.23
2023-05-21T12:34:53.206Z,12.20
2023-05-21T12:37:25.891Z,12.77
2023-05-21T12:39:54.328Z,11.47
2023-05-21T12:42:36.899Z,12.13
2023-05-21T12:45:07.863Z,12.07
2023-05-21T12:47:35.088Z,12.40
2023-05-21T12:50:03.005Z,11.67
2023-05-21T12:52:33.411Z,12.27
2023-05-21T12:55:00.048Z,11.80
2023-05-21T12:57:28.523Z,11.57
2023-05-21T12:59:59.580Z,12.93
2023-05-21T13:02:31.741Z,12.93
2023-05-21T13:04:59.256Z,11.60
2023-05-21T13:07:27.154Z,12.93
2023-05-21T13:09:54.258Z,11.57
2023-05-21T13:12:22.702Z,13.10
2023-05-21T13:14:54.209Z,12.57
2023-05-21T13:17:21.972Z,12.07
2023-05-21T13:20:13.694Z,11.97
2023-05-21T13:22:42.815Z,13.13
2023-05-21T13:25:15.589Z,12.10
2023-05-21T13:27:43.077Z,12.20
2023-05-21T13:30:11.630Z,11.67
2023-05-21T13:32:39.473Z,12.57
2023-05-21T13:35:06.476Z,11.73
2023-05-21T13:37:36.112Z,11.10
2023-05-21T13:40:04.243Z,10.63
2023-05-21T13:42:30.880Z,11.83
2023-05-21T13:44:57.711Z,12.00
2023-05-21T13:47:24.741Z,10.73
2023-05-21T13:49:51.691Z,11.37
2023-05-21T13:52:21.303Z,10.83
2023-05-21T13:54:48.252Z,11.43
2023-05-21T13:57:15.489Z,11.20
2023-05-21T13:59:42.296Z,11.20
2023-05-21T14:02:10.463Z,11.30
2023-05-21T14:04:39.280Z,12.13
2023-05-21T14:07:06.986Z,10.50
2023-05-21T14:09:33.987Z,11.00
2023-05-21T14:12:01.437Z,11.40
2023-05-21T14:14:28.111Z,11.10
2023-05-21T14:16:54.766Z,11.47
2023-05-21T14:19:21.605Z,11.10
2023-05-21T14:21:48.338Z,11.40
2023-05-21T14:24:14.830Z,10.73
2023-05-21T14:26:41.514Z,11.77
2023-05-21T14:29:08.340Z,11.00
2023-05-21T14:31:35.049Z,11.43
2023-05-21T14:34:02.952Z,11.30
2023-05-21T14:36:29.760Z,11.70
2023-05-21T14:38:56.379Z,11.07
2023-05-21T14:41:26.916Z,11.03
2023-05-21T14:43:53.793Z,11.27
2023-05-21T14:46:20.773Z,11.57
2023-05-21T14:48:47.402Z,11.17
2023-05-21T14:51:14.483Z,11.17
2023-05-21T14:53:41.194Z,10.97
2023-05-21T14:56:07.948Z,11.30
2023-05-21T14:58:34.570Z,11.47
2023-05-21T15:01:02.263Z,12.13
2023-05-21T15:03:28.904Z,11.30
2023-05-21T15:05:55.476Z,10.80
2023-05-21T15:08:22.656Z,11.37
2023-05-21T15:10:49.209Z,11.17
2023-05-21T15:13:15.954Z,10.80
2023-05-21T15:15:42.541Z,11.00
2023-05-21T15:18:09.202Z,11.00
2023-05-21T15:20:35.757Z,11.97
2023-05-21T15:25:31.753Z,11.03
2023-05-21T15:27:58.267Z,11.13
2023-05-21T15:30:27.187Z,10.93
2023-05-21T15:32:54.014Z,11.10
2023-05-21T15:35:20.742Z,10.97
2023-05-21T15:37:47.416Z,11.97
2023-05-21T15:40:13.955Z,10.90
2023-05-21T15:42:40.719Z,10.77
2023-05-21T15:45:07.764Z,10.97
2023-05-21T15:47:34.373Z,10.60
2023-05-21T15:50:01.167Z,11.63
2023-05-21T15:52:27.848Z,11.97
2023-05-21T15:54:54.747Z,10.93
2023-05-21T15:57:21.274Z,12.33
2023-05-21T15:59:47.841Z,10.90
2023-05-21T16:02:14.346Z,10.90
2023-05-21T16:04:40.866Z,10.70
2023-05-21T16:07:07.413Z,11.43
2023-05-21T16:09:33.953Z,11.33
2023-05-21T16:12:00.837Z,11.20
2023-05-21T16:14:29.254Z,12.10
2023-05-21T16:16:58.195Z,10.97
2023-05-21T16:19:24.821Z,12.13
2023-05-21T16:21:51.431Z,10.60
2023-05-21T16:24:17.952Z,11.13
2023-05-21T16:26:45.944Z,10.80
2023-05-21T16:29:12.483Z,11.77
2023-05-21T16:31:39.018Z,11.07
2023-05-21T16:34:05.577Z,9.97
2023-05-21T16:36:32.306Z,10.90
2023-05-21T16:38:58.816Z,10.03
2023-05-21T16:41:25.357Z,10.37
2023-05-21T16:43:54.239Z,10.03
2023-05-21T16:46:21.120Z,10.83
2023-05-21T16:48:47.676Z,10.67
2023-05-21T16:51:14.213Z,10.67
2023-05-21T16:53:40.891Z,11.00
2023-05-21T16:56:07.435Z,9.80
2023-05-21T16:58:36.066Z,10.00
2023-05-21T17:01:02.663Z,10.43
2023-05-21T17:03:31.858Z,9.77
2023-05-21T17:05:58.731Z,10.03
2023-05-21T17:08:25.477Z,10.43
2023-05-21T17:10:52.252Z,9.87
2023-05-21T17:13:22.797Z,10.50
2023-05-21T17:15:51.380Z,15.67
2023-05-21T17:18:17.973Z,10.17
2023-05-21T17:20:44.683Z,10.53
2023-05-21T17:23:11.873Z,10.33
2023-05-21T17:25:39.184Z,10.03
2023-05-21T17:28:06.138Z,10.43
2023-05-21T17:30:32.695Z,9.80
2023-05-21T17:33:01.737Z,11.40
2023-05-21T17:35:28.369Z,29.00
2023-05-21T17:37:55.082Z,27.17
2023-05-21T17:40:24.192Z,18.17
2023-05-21T17:42:52.021Z,19.03
2023-05-21T17:45:18.707Z,20.63
2023-05-21T17:47:45.266Z,12.53
2023-05-21T17:50:11.829Z,14.33
2023-05-21T17:52:38.332Z,10.53
2023-05-21T17:55:05.367Z,10.60
2023-05-21T17:57:31.913Z,12.63
2023-05-21T17:59:58.490Z,14.30
2023-05-21T18:02:25.984Z,10.83
2023-05-21T18:04:52.598Z,11.00
2023-05-21T18:07:19.114Z,12.00
2023-05-21T18:09:45.616Z,10.27
2023-05-21T18:12:12.188Z,12.63
2023-05-21T18:14:38.693Z,11.67
2023-05-21T18:17:05.918Z,9.77
2023-05-21T18:19:32.723Z,13.50
2023-05-21T18:21:59.318Z,11.03
2023-05-21T18:24:25.891Z,12.17
2023-05-21T18:26:52.494Z,11.97
2023-05-21T18:29:19.002Z,12.50
2023-05-21T18:31:45.767Z,12.97
2023-05-21T18:34:12.380Z,11.90
2023-05-21T18:36:39.060Z,12.27
2023-05-21T18:39:07.050Z,13.40
2023-05-21T18:41:33.951Z,12.60
2023-05-21T18:44:03.681Z,12.93
2023-05-21T18:46:31.627Z,13.50
2023-05-21T18:48:59.701Z,12.07
2023-05-21T18:51:26.509Z,13.33
2023-05-21T18:53:53.145Z,12.43
2023-05-21T18:56:19.709Z,12.57
2023-05-21T18:58:47.481Z,12.33
2023-05-21T19:01:14.118Z,13.20
2023-05-21T19:03:40.727Z,12.90
2023-05-21T19:06:08.283Z,12.77
2023-05-21T19:08:34.797Z,12.97
2023-05-21T19:11:01.319Z,12.87
2023-05-21T19:13:27.918Z,14.17
2023-05-21T19:15:54.558Z,14.33
2023-05-21T19:18:21.141Z,13.10
2023-05-21T19:20:47.643Z,13.27
2023-05-21T19:23:14.389Z,12.13
2023-05-21T19:25:41.501Z,12.80
2023-05-21T19:28:07.999Z,14.93
2023-05-21T19:30:36.367Z,13.67
2023-05-21T19:33:03.436Z,12.73
2023-05-21T19:35:30.326Z,12.90
2023-05-21T19:38:00.607Z,13.43
2023-05-21T19:40:28.273Z,13.27
2023-05-21T19:42:54.821Z,15.13
2023-05-21T19:45:21.649Z,14.43
2023-05-21T19:47:48.539Z,12.47
2023-05-21T19:50:15.109Z,13.07
2023-05-21T19:52:41.616Z,12.37
2023-05-21T19:55:09.913Z,13.07
2023-05-21T19:57:37.115Z,12.53
2023-05-21T20:00:05.343Z,12.60
2023-05-21T20:02:39.013Z,12.87
2023-05-21T20:05:06.126Z,12.77
2023-05-21T20:07:32.806Z,13.40
2023-05-21T20:09:59.396Z,13.83
2023-05-21T20:12:26.014Z,13.47
2023-05-21T20:14:54.156Z,14.13
2023-05-21T20:17:20.765Z,14.53
2023-05-21T20:19:48.043Z,14.47
2023-05-21T20:22:18.071Z,14.63
2023-05-21T20:24:44.569Z,14.13
2023-05-21T20:27:11.201Z,13.63
2023-05-21T20:29:37.715Z,13.23
2023-05-21T20:32:04.506Z,13.90
2023-05-21T20:34:31.896Z,12.30
2023-05-21T20:36:58.470Z,13.93
2023-05-21T20:39:27.634Z,13.50
2023-05-21T20:41:55.098Z,13.30
2023-05-21T20:44:22.408Z,13.10
2023-05-21T20:46:49.212Z,13.67
2023-05-21T20:49:17.610Z,12.87
2023-05-21T20:51:44.419Z,14.03
2023-05-21T20:54:11.445Z,13.40
2023-05-21T20:56:42.595Z,13.73
2023-05-21T20:59:11.152Z,15.03
2023-05-21T21:01:39.154Z,14.43
2023-05-21T21:04:06.067Z,14.43
2023-05-21T21:06:33.819Z,13.37
2023-05-21T21:09:00.332Z,14.33
2023-05-21T21:11:27.107Z,13.93
2023-05-21T21:13:53.641Z,15.67
2023-05-21T21:16:20.585Z,14.70
2023-05-21T21:18:47.270Z,13.70
2023-05-21T21:21:14.006Z,14.97
2023-05-21T21:23:40.676Z,14.37
2023-05-21T21:26:07.233Z,15.30
2023-05-21T21:28:34.006Z,15.73
2023-05-21T21:31:00.777Z,14.83
2023-05-21T21:33:28.364Z,15.87
2023-05-21T21:35:55.166Z,15.63
2023-05-21T21:38:22.009Z,16.53
2023-05-21T21:40:48.648Z,15.43
2023-05-21T21:43:15.256Z,17.23
2023-05-21T21:45:41.802Z,15.63
2023-05-21T21:48:08.521Z,15.47
2023-05-21T21:50:35.043Z,16.00
2023-05-21T21:53:03.475Z,16.20
2023-05-21T21:55:30.064Z,17.10
2023-05-21T21:57:56.640Z,18.73
2023-05-21T22:00:26.559Z,15.97
2023-05-21T22:02:53.797Z,17.87
2023-05-21T22:05:20.883Z,16.13
2023-05-21T22:07:47.838Z,17.50
2023-05-21T22:10:16.067Z,18.37
2023-05-21T22:12:43.963Z,18.57
2023-05-21T22:15:24.970Z,17.40
2023-05-21T22:17:51.983Z,17.10
2023-05-21T22:20:18.677Z,17.47
2023-05-21T22:22:46.040Z,17.20
2023-05-21T22:25:12.625Z,16.27
2023-05-21T22:27:39.173Z,16.70
2023-05-21T22:30:06.415Z,15.97
2023-05-21T22:32:32.953Z,18.00
2023-05-21T22:34:59.508Z,16.53
2023-05-21T22:37:26.215Z,17.93
2023-05-21T22:39:52.924Z,16.93
2023-05-21T22:42:19.653Z,15.97
2023-05-21T22:44:46.443Z,17.07
2023-05-21T22:47:13.957Z,16.93
2023-05-21T22:49:40.674Z,16.80
2023-05-21T22:52:09.297Z,16.97
2023-05-21T22:54:36.131Z,16.50
2023-05-21T22:57:03.266Z,17.23
2023-05-21T22:59:29.789Z,17.83
2023-05-21T23:01:56.382Z,17.33
2023-05-21T23:04:35.652Z,17.07
2023-05-21T23:07:06.676Z,19.20
2023-05-21T23:09:33.295Z,17.93
2023-05-21T23:11:59.821Z,18.83
2023-05-21T23:14:26.370Z,17.40
2023-05-21T23:16:53.897Z,18.67
2023-05-21T23:19:21.200Z,20.13
2023-05-21T23:21:47.801Z,17.10
2023-05-21T23:24:14.367Z,19.13
2023-05-21T23:26:40.861Z,20.03
2023-05-21T23:29:07.395Z,16.83
2023-05-21T23:31:33.901Z,19.53
2023-05-21T23:34:02.703Z,19.17
2023-05-21T23:36:29.203Z,17.53
2023-05-21T23:38:55.878Z,16.90
2023-05-21T23:41:23.795Z,17.43
2023-05-21T23:43:50.769Z,17.73
2023-05-21T23:46:17.360Z,17.93
2023-05-21T23:48:43.934Z,18.00
2023-05-21T23:51:10.488Z,18.27
2023-05-21T23:53:36.985Z,17.83
2023-05-21T23:56:03.628Z,18.67
2023-05-21T23:58:30.178Z,17.40
